sensor_id;sensor_type;location;lat;lon;timestamp;temperature;humidity
6518;DHT22;3292;48.944;9.240;2023-04-19T00:00:17;9.90;99.90
6518;DHT22;3292;48.944;9.240;2023-04-19T00:02:44;9.90;99.90
6518;DHT22;3292;48.944;9.240;2023-04-19T00:05:13;9.90;99.90
6518;DHT22;3292;48.944;9.240;2023-04-19T00:07:42;9.80;99.90
6518;DHT22;3292;48.944;9.240;2023-04-19T00:10:09;9.80;99.90
6518;DHT22;3292;48.944;9.240;2023-04-19T00:12:36;9.80;99.90
6518;DHT22;3292;48.944;9.240;2023-04-19T00:15:03;9.80;99.90
6518;DHT22;3292;48.944;9.240;2023-04-19T00:17:32;9.80;99.90
6518;DHT22;3292;48.944;9.240;2023-04-19T00:19:59;9.80;99.90
6518;DHT22;3292;48.944;9.240;2023-04-19T00:22:26;9.70;99.90
6518;DHT22;3292;48.944;9.240;2023-04-19T00:24:54;9.70;99.90
6518;DHT22;3292;48.944;9.240;2023-04-19T00:27:21;9.80;99.90
6518;DHT22;3292;48.944;9.240;2023-04-19T00:29:47;9.70;99.90
6518;DHT22;3292;48.944;9.240;2023-04-19T00:32:14;9.70;99.90
6518;DHT22;3292;48.944;9.240;2023-04-19T00:34:41;9.70;99.90
6518;DHT22;3292;48.944;9.240;2023-04-19T00:37:08;9.70;99.90
6518;DHT22;3292;48.944;9.240;2023-04-19T00:39:35;9.60;99.90
6518;DHT22;3292;48.944;9.240;2023-04-19T00:42:04;9.70;99.90
6518;DHT22;3292;48.944;9.240;2023-04-19T00:44:30;9.70;99.90
6518;DHT22;3292;48.944;9.240;2023-04-19T00:46:59;9.70;99.90
6518;DHT22;3292;48.944;9.240;2023-04-19T00:49:26;9.60;99.90
6518;DHT22;3292;48.944;9.240;2023-04-19T00:51:53;9.60;99.90
6518;DHT22;3292;48.944;9.240;2023-04-19T00:54:21;9.60;99.90
6518;DHT22;3292;48.944;9.240;2023-04-19T00:56:48;9.60;99.90
6518;DHT22;3292;48.944;9.240;2023-04-19T00:59:16;9.60;99.90
6518;DHT22;3292;48.944;9.240;2023-04-19T01:01:44;9.60;99.90
6518;DHT22;3292;48.944;9.240;2023-04-19T01:04:11;9.50;99.90
6518;DHT22;3292;48.944;9.240;2023-04-19T01:06:39;9.60;99.90
6518;DHT22;3292;48.944;9.240;2023-04-19T01:09:06;9.60;99.90
6518;DHT22;3292;48.944;9.240;2023-04-19T01:11:33;9.60;99.90
6518;DHT22;3292;48.944;9.240;2023-04-19T01:14:00;9.60;99.90
6518;DHT22;3292;48.944;9.240;2023-04-19T01:16:28;9.60;99.90
6518;DHT22;3292;48.944;9.240;2023-04-19T01:18:55;9.60;99.90
6518;DHT22;3292;48.944;9.240;2023-04-19T01:21:22;9.50;99.90
6518;DHT22;3292;48.944;9.240;2023-04-19T01:23:50;9.60;99.90
6518;DHT22;3292;48.944;9.240;2023-04-19T01:26:18;9.60;99.90
6518;DHT22;3292;48.944;9.240;2023-04-19T01:28:44;9.60;99.90
6518;DHT22;3292;48.944;9.240;2023-04-19T01:31:11;9.60;99.90
6518;DHT22;3292;48.944;9.240;2023-04-19T01:33:38;9.60;99.90
6518;DHT22;3292;48.944;9.240;2023-04-19T01:36:06;9.50;99.90
6518;DHT22;3292;48.944;9.240;2023-04-19T01:38:33;9.50;99.90
6518;DHT22;3292;48.944;9.240;2023-04-19T01:41:01;9.50;99.90
6518;DHT22;3292;48.944;9.240;2023-04-19T01:43:28;9.50;99.90
6518;DHT22;3292;48.944;9.240;2023-04-19T01:45:55;9.50;99.90
6518;DHT22;3292;48.944;9.240;2023-04-19T01:48:22;9.50;99.90
6518;DHT22;3292;48.944;9.240;2023-04-19T01:50:49;9.50;99.90
6518;DHT22;3292;48.944;9.240;2023-04-19T01:53:15;9.50;99.90
6518;DHT22;3292;48.944;9.240;2023-04-19T01:55:42;9.50;99.90
6518;DHT22;3292;48.944;9.240;2023-04-19T01:58:11;9.50;99.90
6518;DHT22;3292;48.944;9.240;2023-04-19T02:00:38;9.50;99.90
6518;DHT22;3292;48.944;9.240;2023-04-19T02:03:04;9.50;99.90
6518;DHT22;3292;48.944;9.240;2023-04-19T02:05:31;9.40;99.90
6518;DHT22;3292;48.944;9.240;2023-04-19T02:07:58;9.50;99.90
6518;DHT22;3292;48.944;9.240;2023-04-19T02:10:26;9.50;99.90
6518;DHT22;3292;48.944;9.240;2023-04-19T02:12:53;9.50;99.90
6518;DHT22;3292;48.944;9.240;2023-04-19T02:15:21;9.50;99.90
6518;DHT22;3292;48.944;9.240;2023-04-19T02:17:48;9.40;99.90
6518;DHT22;3292;48.944;9.240;2023-04-19T02:20:15;9.40;99.90
6518;DHT22;3292;48.944;9.240;2023-04-19T02:22:42;9.40;99.90
6518;DHT22;3292;48.944;9.240;2023-04-19T02:25:09;9.30;99.90
6518;DHT22;3292;48.944;9.240;2023-04-19T02:27:36;9.30;99.90
6518;DHT22;3292;48.944;9.240;2023-04-19T02:30:03;9.30;99.90
6518;DHT22;3292;48.944;9.240;2023-04-19T02:32:32;9.30;99.90
6518;DHT22;3292;48.944;9.240;2023-04-19T02:34:58;9.30;99.90
6518;DHT22;3292;48.944;9.240;2023-04-19T02:37:25;9.20;99.90
6518;DHT22;3292;48.944;9.240;2023-04-19T02:39:52;9.20;99.90
6518;DHT22;3292;48.944;9.240;2023-04-19T02:42:19;9.20;99.90
6518;DHT22;3292;48.944;9.240;2023-04-19T02:44:45;9.20;99.90
6518;DHT22;3292;48.944;9.240;2023-04-19T02:47:12;9.20;99.90
6518;DHT22;3292;48.944;9.240;2023-04-19T02:49:40;9.20;99.90
6518;DHT22;3292;48.944;9.240;2023-04-19T02:52:07;9.20;99.90
6518;DHT22;3292;48.944;9.240;2023-04-19T02:54:34;9.20;99.90
6518;DHT22;3292;48.944;9.240;2023-04-19T02:57:01;9.20;99.90
6518;DHT22;3292;48.944;9.240;2023-04-19T02:59:28;9.30;99.90
6518;DHT22;3292;48.944;9.240;2023-04-19T03:01:55;9.20;99.90
6518;DHT22;3292;48.944;9.240;2023-04-19T03:04:21;9.20;99.90
6518;DHT22;3292;48.944;9.240;2023-04-19T03:06:51;9.20;99.90
6518;DHT22;3292;48.944;9.240;2023-04-19T03:09:17;9.20;99.90
6518;DHT22;3292;48.944;9.240;2023-04-19T03:11:44;9.20;99.90
6518;DHT22;3292;48.944;9.240;2023-04-19T03:14:11;9.20;99.90
6518;DHT22;3292;48.944;9.240;2023-04-19T03:16:38;9.20;99.90
6518;DHT22;3292;48.944;9.240;2023-04-19T03:19:05;9.10;99.90
6518;DHT22;3292;48.944;9.240;2023-04-19T03:21:32;9.10;99.90
6518;DHT22;3292;48.944;9.240;2023-04-19T03:24:00;9.10;99.90
6518;DHT22;3292;48.944;9.240;2023-04-19T03:26:29;9.10;99.90
6518;DHT22;3292;48.944;9.240;2023-04-19T03:29:06;9.10;99.90
6518;DHT22;3292;48.944;9.240;2023-04-19T03:31:33;9.20;99.90
6518;DHT22;3292;48.944;9.240;2023-04-19T03:34:00;9.10;99.90
6518;DHT22;3292;48.944;9.240;2023-04-19T03:36:27;9.20;99.90
6518;DHT22;3292;48.944;9.240;2023-04-19T03:38:54;9.20;99.90
6518;DHT22;3292;48.944;9.240;2023-04-19T03:41:23;9.10;99.90
6518;DHT22;3292;48.944;9.240;2023-04-19T03:43:50;9.10;99.90
6518;DHT22;3292;48.944;9.240;2023-04-19T03:46:17;9.00;99.90
6518;DHT22;3292;48.944;9.240;2023-04-19T03:48:44;9.00;99.90
6518;DHT22;3292;48.944;9.240;2023-04-19T03:51:11;8.90;99.90
6518;DHT22;3292;48.944;9.240;2023-04-19T03:53:40;8.90;99.90
6518;DHT22;3292;48.944;9.240;2023-04-19T03:56:07;8.80;99.90
6518;DHT22;3292;48.944;9.240;2023-04-19T03:58:36;8.80;99.90
6518;DHT22;3292;48.944;9.240;2023-04-19T04:01:05;8.80;99.90
6518;DHT22;3292;48.944;9.240;2023-04-19T04:03:33;8.80;99.90
6518;DHT22;3292;48.944;9.240;2023-04-19T04:06:01;8.80;99.90
6518;DHT22;3292;48.944;9.240;2023-04-19T04:08:28;8.80;99.90
6518;DHT22;3292;48.944;9.240;2023-04-19T04:10:55;8.80;99.90
6518;DHT22;3292;48.944;9.240;2023-04-19T04:13:23;8.80;99.90
6518;DHT22;3292;48.944;9.240;2023-04-19T04:15:51;8.80;99.90
6518;DHT22;3292;48.944;9.240;2023-04-19T04:18:19;8.80;99.90
6518;DHT22;3292;48.944;9.240;2023-04-19T04:20:47;8.70;99.90
6518;DHT22;3292;48.944;9.240;2023-04-19T04:23:14;8.60;99.90
6518;DHT22;3292;48.944;9.240;2023-04-19T04:25:41;8.60;99.90
6518;DHT22;3292;48.944;9.240;2023-04-19T04:28:08;8.60;99.90
6518;DHT22;3292;48.944;9.240;2023-04-19T04:30:35;8.60;99.90
6518;DHT22;3292;48.944;9.240;2023-04-19T04:33:11;8.60;99.90
6518;DHT22;3292;48.944;9.240;2023-04-19T04:35:39;8.60;99.90
6518;DHT22;3292;48.944;9.240;2023-04-19T04:38:09;8.60;99.90
6518;DHT22;3292;48.944;9.240;2023-04-19T04:40:38;8.60;99.90
6518;DHT22;3292;48.944;9.240;2023-04-19T04:43:06;8.60;99.90
6518;DHT22;3292;48.944;9.240;2023-04-19T04:45:33;8.50;99.90
6518;DHT22;3292;48.944;9.240;2023-04-19T04:48:00;8.50;99.90
6518;DHT22;3292;48.944;9.240;2023-04-19T04:50:29;8.50;99.90
6518;DHT22;3292;48.944;9.240;2023-04-19T04:52:56;8.50;99.90
6518;DHT22;3292;48.944;9.240;2023-04-19T04:55:27;8.40;99.90
6518;DHT22;3292;48.944;9.240;2023-04-19T04:57:54;8.40;99.90
6518;DHT22;3292;48.944;9.240;2023-04-19T05:00:24;8.40;99.90
6518;DHT22;3292;48.944;9.240;2023-04-19T05:02:52;8.40;99.90
6518;DHT22;3292;48.944;9.240;2023-04-19T05:05:19;8.40;99.90
6518;DHT22;3292;48.944;9.240;2023-04-19T05:07:48;8.40;99.90
6518;DHT22;3292;48.944;9.240;2023-04-19T05:10:16;8.30;99.90
6518;DHT22;3292;48.944;9.240;2023-04-19T05:12:43;8.20;99.90
6518;DHT22;3292;48.944;9.240;2023-04-19T05:15:10;8.20;99.90
6518;DHT22;3292;48.944;9.240;2023-04-19T05:17:38;8.10;99.90
6518;DHT22;3292;48.944;9.240;2023-04-19T05:20:08;8.10;99.90
6518;DHT22;3292;48.944;9.240;2023-04-19T05:22:35;8.10;99.90
6518;DHT22;3292;48.944;9.240;2023-04-19T05:25:05;8.10;99.90
6518;DHT22;3292;48.944;9.240;2023-04-19T05:27:33;8.10;99.90
6518;DHT22;3292;48.944;9.240;2023-04-19T05:30:00;8.10;99.90
6518;DHT22;3292;48.944;9.240;2023-04-19T05:32:27;8.10;99.90
6518;DHT22;3292;48.944;9.240;2023-04-19T05:35:09;8.20;99.90
6518;DHT22;3292;48.944;9.240;2023-04-19T05:37:37;8.20;99.90
6518;DHT22;3292;48.944;9.240;2023-04-19T05:40:16;8.20;99.90
6518;DHT22;3292;48.944;9.240;2023-04-19T05:42:44;8.30;99.90
6518;DHT22;3292;48.944;9.240;2023-04-19T05:45:11;8.40;99.90
6518;DHT22;3292;48.944;9.240;2023-04-19T05:47:40;8.50;99.90
6518;DHT22;3292;48.944;9.240;2023-04-19T05:50:08;8.50;99.90
6518;DHT22;3292;48.944;9.240;2023-04-19T05:52:35;8.60;99.90
6518;DHT22;3292;48.944;9.240;2023-04-19T05:55:03;9.10;99.90
6518;DHT22;3292;48.944;9.240;2023-04-19T05:57:33;10.00;99.90
6518;DHT22;3292;48.944;9.240;2023-04-19T06:00:00;10.80;99.90
6518;DHT22;3292;48.944;9.240;2023-04-19T06:02:36;11.70;99.90
6518;DHT22;3292;48.944;9.240;2023-04-19T06:05:04;12.40;99.90
6518;DHT22;3292;48.944;9.240;2023-04-19T06:07:32;12.90;99.90
6518;DHT22;3292;48.944;9.240;2023-04-19T06:09:59;13.20;99.90
6518;DHT22;3292;48.944;9.240;2023-04-19T06:12:35;13.40;99.90
6518;DHT22;3292;48.944;9.240;2023-04-19T06:15:03;13.30;99.90
6518;DHT22;3292;48.944;9.240;2023-04-19T06:17:31;13.30;99.90
6518;DHT22;3292;48.944;9.240;2023-04-19T06:19:58;13.50;99.90
6518;DHT22;3292;48.944;9.240;2023-04-19T06:22:26;13.50;99.90
6518;DHT22;3292;48.944;9.240;2023-04-19T06:24:53;13.20;99.90
6518;DHT22;3292;48.944;9.240;2023-04-19T06:27:19;12.90;99.90
6518;DHT22;3292;48.944;9.240;2023-04-19T06:29:54;12.80;99.90
6518;DHT22;3292;48.944;9.240;2023-04-19T06:32:22;12.80;99.90
6518;DHT22;3292;48.944;9.240;2023-04-19T06:34:50;12.50;99.90
6518;DHT22;3292;48.944;9.240;2023-04-19T06:37:17;12.30;99.90
6518;DHT22;3292;48.944;9.240;2023-04-19T06:39:46;11.90;99.90
6518;DHT22;3292;48.944;9.240;2023-04-19T06:42:13;11.70;99.90
6518;DHT22;3292;48.944;9.240;2023-04-19T06:44:40;11.50;99.90
6518;DHT22;3292;48.944;9.240;2023-04-19T06:47:08;11.30;99.90
6518;DHT22;3292;48.944;9.240;2023-04-19T06:49:36;11.20;99.90
6518;DHT22;3292;48.944;9.240;2023-04-19T06:52:06;11.10;99.90
6518;DHT22;3292;48.944;9.240;2023-04-19T06:54:33;10.80;99.90
6518;DHT22;3292;48.944;9.240;2023-04-19T06:57:03;10.60;99.90
6518;DHT22;3292;48.944;9.240;2023-04-19T07:02:17;11.00;99.90
6518;DHT22;3292;48.944;9.240;2023-04-19T07:04:49;11.00;99.90
6518;DHT22;3292;48.944;9.240;2023-04-19T07:07:16;11.00;99.90
6518;DHT22;3292;48.944;9.240;2023-04-19T07:09:47;11.00;99.90
6518;DHT22;3292;48.944;9.240;2023-04-19T07:12:14;11.10;99.90
6518;DHT22;3292;48.944;9.240;2023-04-19T07:14:41;11.10;99.90
6518;DHT22;3292;48.944;9.240;2023-04-19T07:17:09;11.20;99.90
6518;DHT22;3292;48.944;9.240;2023-04-19T07:19:39;11.30;99.90
6518;DHT22;3292;48.944;9.240;2023-04-19T07:22:07;11.70;99.90
6518;DHT22;3292;48.944;9.240;2023-04-19T07:24:37;12.00;99.90
6518;DHT22;3292;48.944;9.240;2023-04-19T07:27:09;12.50;99.90
6518;DHT22;3292;48.944;9.240;2023-04-19T07:29:40;12.90;99.90
6518;DHT22;3292;48.944;9.240;2023-04-19T07:32:07;13.10;99.90
6518;DHT22;3292;48.944;9.240;2023-04-19T07:34:36;13.60;99.90
6518;DHT22;3292;48.944;9.240;2023-04-19T07:37:04;13.70;99.90
6518;DHT22;3292;48.944;9.240;2023-04-19T07:39:31;14.00;99.90
6518;DHT22;3292;48.944;9.240;2023-04-19T07:41:58;13.90;99.90
6518;DHT22;3292;48.944;9.240;2023-04-19T07:44:26;14.10;99.90
6518;DHT22;3292;48.944;9.240;2023-04-19T07:47:03;14.30;99.90
6518;DHT22;3292;48.944;9.240;2023-04-19T07:49:39;14.10;99.90
6518;DHT22;3292;48.944;9.240;2023-04-19T07:52:11;13.70;99.90
6518;DHT22;3292;48.944;9.240;2023-04-19T07:54:38;13.50;99.90
6518;DHT22;3292;48.944;9.240;2023-04-19T07:57:12;13.20;99.90
6518;DHT22;3292;48.944;9.240;2023-04-19T07:59:42;13.00;99.90
6518;DHT22;3292;48.944;9.240;2023-04-19T08:02:09;12.70;99.90
6518;DHT22;3292;48.944;9.240;2023-04-19T08:04:36;12.60;99.90
6518;DHT22;3292;48.944;9.240;2023-04-19T08:07:04;12.30;99.90
6518;DHT22;3292;48.944;9.240;2023-04-19T08:09:34;12.10;99.90
6518;DHT22;3292;48.944;9.240;2023-04-19T08:12:02;12.10;99.90
6518;DHT22;3292;48.944;9.240;2023-04-19T08:14:30;12.00;99.90
6518;DHT22;3292;48.944;9.240;2023-04-19T08:16:58;11.90;99.90
6518;DHT22;3292;48.944;9.240;2023-04-19T08:19:25;11.90;99.90
6518;DHT22;3292;48.944;9.240;2023-04-19T08:24:39;11.90;99.90
6518;DHT22;3292;48.944;9.240;2023-04-19T08:27:08;11.80;99.90
6518;DHT22;3292;48.944;9.240;2023-04-19T08:29:35;11.70;99.90
6518;DHT22;3292;48.944;9.240;2023-04-19T08:32:04;11.70;99.90
6518;DHT22;3292;48.944;9.240;2023-04-19T08:34:34;11.40;99.90
6518;DHT22;3292;48.944;9.240;2023-04-19T08:37:03;11.40;99.90
6518;DHT22;3292;48.944;9.240;2023-04-19T08:39:30;11.30;99.90
6518;DHT22;3292;48.944;9.240;2023-04-19T08:42:04;11.30;99.90
6518;DHT22;3292;48.944;9.240;2023-04-19T08:44:32;11.30;99.90
6518;DHT22;3292;48.944;9.240;2023-04-19T08:46:59;11.30;99.90
6518;DHT22;3292;48.944;9.240;2023-04-19T08:49:27;11.30;99.90
6518;DHT22;3292;48.944;9.240;2023-04-19T08:51:56;11.30;99.90
6518;DHT22;3292;48.944;9.240;2023-04-19T08:54:24;11.30;99.90
6518;DHT22;3292;48.944;9.240;2023-04-19T08:56:52;11.40;99.90
6518;DHT22;3292;48.944;9.240;2023-04-19T08:59:21;11.60;99.90
6518;DHT22;3292;48.944;9.240;2023-04-19T09:01:49;11.70;99.90
6518;DHT22;3292;48.944;9.240;2023-04-19T09:04:16;11.80;99.90
6518;DHT22;3292;48.944;9.240;2023-04-19T09:06:47;12.00;99.90
6518;DHT22;3292;48.944;9.240;2023-04-19T09:09:16;12.00;99.90
6518;DHT22;3292;48.944;9.240;2023-04-19T09:11:44;12.10;99.90
6518;DHT22;3292;48.944;9.240;2023-04-19T09:14:16;12.20;99.90
6518;DHT22;3292;48.944;9.240;2023-04-19T09:16:45;12.40;99.90
6518;DHT22;3292;48.944;9.240;2023-04-19T09:19:17;12.40;99.90
6518;DHT22;3292;48.944;9.240;2023-04-19T09:21:44;12.50;99.90
6518;DHT22;3292;48.944;9.240;2023-04-19T09:24:11;12.50;99.90
6518;DHT22;3292;48.944;9.240;2023-04-19T09:26:39;12.60;99.90
6518;DHT22;3292;48.944;9.240;2023-04-19T09:29:19;12.20;99.90
6518;DHT22;3292;48.944;9.240;2023-04-19T09:31:57;12.10;99.90
6518;DHT22;3292;48.944;9.240;2023-04-19T09:34:50;12.10;99.90
6518;DHT22;3292;48.944;9.240;2023-04-19T09:37:18;12.20;99.90
6518;DHT22;3292;48.944;9.240;2023-04-19T09:39:45;12.30;99.90
6518;DHT22;3292;48.944;9.240;2023-04-19T09:42:15;12.40;99.90
6518;DHT22;3292;48.944;9.240;2023-04-19T09:44:59;12.50;99.90
6518;DHT22;3292;48.944;9.240;2023-04-19T09:47:31;12.60;99.90
6518;DHT22;3292;48.944;9.240;2023-04-19T09:50:06;12.60;99.90
6518;DHT22;3292;48.944;9.240;2023-04-19T09:52:34;12.60;99.90
6518;DHT22;3292;48.944;9.240;2023-04-19T09:55:02;12.60;99.90
6518;DHT22;3292;48.944;9.240;2023-04-19T09:57:30;12.60;99.90
6518;DHT22;3292;48.944;9.240;2023-04-19T09:59:59;12.60;99.90
6518;DHT22;3292;48.944;9.240;2023-04-19T10:02:31;12.60;99.90
6518;DHT22;3292;48.944;9.240;2023-04-19T10:05:02;12.60;99.90
6518;DHT22;3292;48.944;9.240;2023-04-19T10:07:30;12.50;99.90
6518;DHT22;3292;48.944;9.240;2023-04-19T10:09:59;12.60;99.90
6518;DHT22;3292;48.944;9.240;2023-04-19T10:12:27;12.60;99.90
6518;DHT22;3292;48.944;9.240;2023-04-19T10:14:57;12.60;99.90
6518;DHT22;3292;48.944;9.240;2023-04-19T10:17:25;12.70;99.90
6518;DHT22;3292;48.944;9.240;2023-04-19T10:20:01;12.60;99.90
6518;DHT22;3292;48.944;9.240;2023-04-19T10:22:32;12.70;99.90
6518;DHT22;3292;48.944;9.240;2023-04-19T10:25:07;12.80;99.90
6518;DHT22;3292;48.944;9.240;2023-04-19T10:27:36;12.70;99.90
6518;DHT22;3292;48.944;9.240;2023-04-19T10:30:04;12.50;99.90
6518;DHT22;3292;48.944;9.240;2023-04-19T10:32:42;12.50;99.90
6518;DHT22;3292;48.944;9.240;2023-04-19T10:35:18;12.40;99.90
6518;DHT22;3292;48.944;9.240;2023-04-19T10:38:10;12.30;99.90
6518;DHT22;3292;48.944;9.240;2023-04-19T10:40:54;12.30;99.90
6518;DHT22;3292;48.944;9.240;2023-04-19T10:43:22;12.30;99.90
6518;DHT22;3292;48.944;9.240;2023-04-19T10:45:50;12.10;99.90
6518;DHT22;3292;48.944;9.240;2023-04-19T10:48:35;12.00;99.90
6518;DHT22;3292;48.944;9.240;2023-04-19T10:51:14;11.90;99.90
6518;DHT22;3292;48.944;9.240;2023-04-19T10:53:52;11.80;99.90
6518;DHT22;3292;48.944;9.240;2023-04-19T10:56:22;11.80;99.90
6518;DHT22;3292;48.944;9.240;2023-04-19T10:59:13;11.80;99.90
6518;DHT22;3292;48.944;9.240;2023-04-19T11:01:53;11.70;99.90
6518;DHT22;3292;48.944;9.240;2023-04-19T11:04:23;11.60;99.90
6518;DHT22;3292;48.944;9.240;2023-04-19T11:07:03;11.60;99.90
6518;DHT22;3292;48.944;9.240;2023-04-19T11:09:36;11.50;99.90
6518;DHT22;3292;48.944;9.240;2023-04-19T11:12:11;11.40;99.90
6518;DHT22;3292;48.944;9.240;2023-04-19T11:14:40;11.30;99.90
6518;DHT22;3292;48.944;9.240;2023-04-19T11:17:13;11.40;99.90
6518;DHT22;3292;48.944;9.240;2023-04-19T11:19:44;11.30;99.90
6518;DHT22;3292;48.944;9.240;2023-04-19T11:22:12;11.20;99.90
6518;DHT22;3292;48.944;9.240;2023-04-19T11:24:44;11.10;99.90
6518;DHT22;3292;48.944;9.240;2023-04-19T11:27:13;11.10;99.90
6518;DHT22;3292;48.944;9.240;2023-04-19T11:29:40;11.10;99.90
6518;DHT22;3292;48.944;9.240;2023-04-19T11:32:07;11.10;99.90
6518;DHT22;3292;48.944;9.240;2023-04-19T11:34:38;11.10;99.90
6518;DHT22;3292;48.944;9.240;2023-04-19T11:37:05;11.00;99.90
6518;DHT22;3292;48.944;9.240;2023-04-19T11:39:44;11.00;99.90
6518;DHT22;3292;48.944;9.240;2023-04-19T11:42:16;11.00;99.90
6518;DHT22;3292;48.944;9.240;2023-04-19T11:44:48;10.80;99.90
6518;DHT22;3292;48.944;9.240;2023-04-19T11:47:18;10.80;99.90
6518;DHT22;3292;48.944;9.240;2023-04-19T11:49:46;10.70;99.90
6518;DHT22;3292;48.944;9.240;2023-04-19T11:52:19;10.70;99.90
6518;DHT22;3292;48.944;9.240;2023-04-19T11:55:20;10.70;99.90
6518;DHT22;3292;48.944;9.240;2023-04-19T11:57:49;10.70;99.90
6518;DHT22;3292;48.944;9.240;2023-04-19T12:00:31;10.60;99.90
6518;DHT22;3292;48.944;9.240;2023-04-19T12:03:02;10.60;99.90
6518;DHT22;3292;48.944;9.240;2023-04-19T12:05:30;10.70;99.90
6518;DHT22;3292;48.944;9.240;2023-04-19T12:08:05;10.70;99.90
6518;DHT22;3292;48.944;9.240;2023-04-19T12:10:35;10.70;99.90
6518;DHT22;3292;48.944;9.240;2023-04-19T12:13:16;10.80;99.90
6518;DHT22;3292;48.944;9.240;2023-04-19T12:15:44;10.80;99.90
6518;DHT22;3292;48.944;9.240;2023-04-19T12:18:13;10.80;99.90
6518;DHT22;3292;48.944;9.240;2023-04-19T12:20:43;10.80;99.90
6518;DHT22;3292;48.944;9.240;2023-04-19T12:23:14;10.80;99.90
6518;DHT22;3292;48.944;9.240;2023-04-19T12:25:44;10.80;99.90
6518;DHT22;3292;48.944;9.240;2023-04-19T12:28:12;10.80;99.90
6518;DHT22;3292;48.944;9.240;2023-04-19T12:30:40;10.80;99.90
6518;DHT22;3292;48.944;9.240;2023-04-19T12:33:14;10.90;99.90
6518;DHT22;3292;48.944;9.240;2023-04-19T12:35:41;10.90;99.90
6518;DHT22;3292;48.944;9.240;2023-04-19T12:38:09;10.90;99.90
6518;DHT22;3292;48.944;9.240;2023-04-19T12:40:36;10.90;99.90
6518;DHT22;3292;48.944;9.240;2023-04-19T12:43:06;10.90;99.90
6518;DHT22;3292;48.944;9.240;2023-04-19T12:45:34;10.90;99.90
6518;DHT22;3292;48.944;9.240;2023-04-19T12:48:01;10.90;99.90
6518;DHT22;3292;48.944;9.240;2023-04-19T12:50:28;10.90;99.90
6518;DHT22;3292;48.944;9.240;2023-04-19T12:52:55;11.00;99.90
6518;DHT22;3292;48.944;9.240;2023-04-19T12:55:21;11.00;99.90
6518;DHT22;3292;48.944;9.240;2023-04-19T12:57:48;11.00;99.90
6518;DHT22;3292;48.944;9.240;2023-04-19T13:00:18;10.90;99.90
6518;DHT22;3292;48.944;9.240;2023-04-19T13:02:45;11.00;99.90
6518;DHT22;3292;48.944;9.240;2023-04-19T13:05:13;10.90;99.90
6518;DHT22;3292;48.944;9.240;2023-04-19T13:07:40;11.00;99.90
6518;DHT22;3292;48.944;9.240;2023-04-19T13:10:08;11.00;99.90
6518;DHT22;3292;48.944;9.240;2023-04-19T13:12:35;11.00;99.90
6518;DHT22;3292;48.944;9.240;2023-04-19T13:15:02;11.10;99.90
6518;DHT22;3292;48.944;9.240;2023-04-19T13:17:31;11.10;99.90
6518;DHT22;3292;48.944;9.240;2023-04-19T13:19:58;11.10;99.90
6518;DHT22;3292;48.944;9.240;2023-04-19T13:22:33;11.10;99.90
6518;DHT22;3292;48.944;9.240;2023-04-19T13:25:01;11.10;99.90
6518;DHT22;3292;48.944;9.240;2023-04-19T13:27:30;11.20;99.90
6518;DHT22;3292;48.944;9.240;2023-04-19T13:33:03;11.40;99.90
6518;DHT22;3292;48.944;9.240;2023-04-19T13:35:33;11.40;99.90
6518;DHT22;3292;48.944;9.240;2023-04-19T13:38:04;11.40;99.90
6518;DHT22;3292;48.944;9.240;2023-04-19T13:40:40;11.60;99.90
6518;DHT22;3292;48.944;9.240;2023-04-19T13:43:09;11.70;99.90
6518;DHT22;3292;48.944;9.240;2023-04-19T13:45:36;11.80;99.90
6518;DHT22;3292;48.944;9.240;2023-04-19T13:48:07;11.80;99.90
6518;DHT22;3292;48.944;9.240;2023-04-19T13:50:43;12.00;99.90
6518;DHT22;3292;48.944;9.240;2023-04-19T13:53:10;12.20;99.90
6518;DHT22;3292;48.944;9.240;2023-04-19T13:55:37;12.30;99.90
6518;DHT22;3292;48.944;9.240;2023-04-19T13:58:06;12.40;99.90
6518;DHT22;3292;48.944;9.240;2023-04-19T14:00:33;12.60;99.90
6518;DHT22;3292;48.944;9.240;2023-04-19T14:03:00;12.60;99.90
6518;DHT22;3292;48.944;9.240;2023-04-19T14:05:37;12.60;99.90
6518;DHT22;3292;48.944;9.240;2023-04-19T14:08:04;12.70;99.90
6518;DHT22;3292;48.944;9.240;2023-04-19T14:10:31;12.70;99.90
6518;DHT22;3292;48.944;9.240;2023-04-19T14:12:58;12.70;99.90
6518;DHT22;3292;48.944;9.240;2023-04-19T14:15:28;12.70;99.90
6518;DHT22;3292;48.944;9.240;2023-04-19T14:17:55;12.70;99.90
6518;DHT22;3292;48.944;9.240;2023-04-19T14:20:22;12.80;99.90
6518;DHT22;3292;48.944;9.240;2023-04-19T14:22:51;12.90;99.90
6518;DHT22;3292;48.944;9.240;2023-04-19T14:25:19;13.10;99.90
6518;DHT22;3292;48.944;9.240;2023-04-19T14:27:46;13.10;99.90
6518;DHT22;3292;48.944;9.240;2023-04-19T14:30:13;13.20;99.90
6518;DHT22;3292;48.944;9.240;2023-04-19T14:32:40;13.10;99.90
6518;DHT22;3292;48.944;9.240;2023-04-19T14:35:08;13.10;99.90
6518;DHT22;3292;48.944;9.240;2023-04-19T14:37:36;13.00;99.90
6518;DHT22;3292;48.944;9.240;2023-04-19T14:40:06;13.10;99.90
6518;DHT22;3292;48.944;9.240;2023-04-19T14:42:33;12.90;99.90
6518;DHT22;3292;48.944;9.240;2023-04-19T14:45:00;12.20;99.90
6518;DHT22;3292;48.944;9.240;2023-04-19T14:47:26;12.00;99.90
6518;DHT22;3292;48.944;9.240;2023-04-19T14:49:53;11.90;99.90
6518;DHT22;3292;48.944;9.240;2023-04-19T14:52:20;12.00;99.90
6518;DHT22;3292;48.944;9.240;2023-04-19T14:54:48;12.00;99.90
6518;DHT22;3292;48.944;9.240;2023-04-19T14:57:17;12.00;99.90
6518;DHT22;3292;48.944;9.240;2023-04-19T14:59:44;12.20;99.90
6518;DHT22;3292;48.944;9.240;2023-04-19T15:02:11;12.30;99.90
6518;DHT22;3292;48.944;9.240;2023-04-19T15:04:38;12.40;99.90
6518;DHT22;3292;48.944;9.240;2023-04-19T15:07:05;12.40;99.90
6518;DHT22;3292;48.944;9.240;2023-04-19T15:09:32;12.20;99.90
6518;DHT22;3292;48.944;9.240;2023-04-19T15:11:59;12.30;99.90
6518;DHT22;3292;48.944;9.240;2023-04-19T15:14:27;12.30;99.90
6518;DHT22;3292;48.944;9.240;2023-04-19T15:16:54;12.30;99.90
6518;DHT22;3292;48.944;9.240;2023-04-19T15:19:21;12.20;99.90
6518;DHT22;3292;48.944;9.240;2023-04-19T15:21:48;12.10;99.90
6518;DHT22;3292;48.944;9.240;2023-04-19T15:24:15;12.10;99.90
6518;DHT22;3292;48.944;9.240;2023-04-19T15:26:41;12.20;99.90
6518;DHT22;3292;48.944;9.240;2023-04-19T15:29:08;12.50;99.90
6518;DHT22;3292;48.944;9.240;2023-04-19T15:31:36;12.80;99.90
6518;DHT22;3292;48.944;9.240;2023-04-19T15:34:03;13.00;99.90
6518;DHT22;3292;48.944;9.240;2023-04-19T15:36:30;13.30;99.90
6518;DHT22;3292;48.944;9.240;2023-04-19T15:39:00;13.40;99.90
6518;DHT22;3292;48.944;9.240;2023-04-19T15:41:27;13.40;99.90
6518;DHT22;3292;48.944;9.240;2023-04-19T15:43:54;13.50;99.90
6518;DHT22;3292;48.944;9.240;2023-04-19T15:46:22;13.60;99.90
6518;DHT22;3292;48.944;9.240;2023-04-19T15:48:50;13.60;99.90
6518;DHT22;3292;48.944;9.240;2023-04-19T15:51:17;13.60;99.90
6518;DHT22;3292;48.944;9.240;2023-04-19T15:53:46;13.70;99.90
6518;DHT22;3292;48.944;9.240;2023-04-19T15:56:13;13.60;99.90
6518;DHT22;3292;48.944;9.240;2023-04-19T15:58:40;13.70;99.90
6518;DHT22;3292;48.944;9.240;2023-04-19T16:01:10;13.70;99.90
6518;DHT22;3292;48.944;9.240;2023-04-19T16:03:39;13.60;99.90
6518;DHT22;3292;48.944;9.240;2023-04-19T16:06:07;13.60;99.90
6518;DHT22;3292;48.944;9.240;2023-04-19T16:08:35;13.60;99.90
6518;DHT22;3292;48.944;9.240;2023-04-19T16:11:03;13.60;99.90
6518;DHT22;3292;48.944;9.240;2023-04-19T16:13:30;13.50;99.90
6518;DHT22;3292;48.944;9.240;2023-04-19T16:15:57;13.40;99.90
6518;DHT22;3292;48.944;9.240;2023-04-19T16:18:26;13.40;99.90
6518;DHT22;3292;48.944;9.240;2023-04-19T16:20:53;13.40;99.90
6518;DHT22;3292;48.944;9.240;2023-04-19T16:23:22;13.40;99.90
6518;DHT22;3292;48.944;9.240;2023-04-19T16:25:51;13.40;99.90